Time;durP1;ratioP1;P1;durP2;ratioP2;P2;SDS_P1;SDS_P2;PMS_P1;PMS_P2;Temp;Humidity;BMP_temperature;BMP_pressure;BME280_temperature;BME280_humidity;BME280_pressure;Samples;Min_cycle;Max_cycle;Signal;HPM_P1;HPM_P2
2023/07/10 00:01:11;;;;;;;1999.90;999.90;;;20.80;96.40;;;;;;5095122;28;20033;-69
2023/07/10 00:03:37;;;;;;;1999.90;999.90;;;20.80;96.60;;;;;;5095103;28;20804;-69
2023/07/10 00:06:03;;;;;;;1999.90;999.90;;;20.80;96.90;;;;;;5094672;28;20031;-69
2023/07/10 00:08:28;;;;;;;1999.90;999.90;;;20.80;96.90;;;;;;5095531;28;20036;-69
2023/07/10 00:10:54;;;;;;;1999.90;999.90;;;20.70;97.00;;;;;;5095388;28;20059;-71
2023/07/10 00:13:21;;;;;;;1999.90;999.90;;;20.80;96.90;;;;;;5095027;28;20040;-69
2023/07/10 00:15:48;;;;;;;1999.90;999.90;;;20.80;97.40;;;;;;5095240;28;20482;-69
2023/07/10 00:18:16;;;;;;;1999.90;999.90;;;20.80;97.30;;;;;;5095169;28;20028;-69
2023/07/10 00:20:42;;;;;;;1999.90;999.90;;;20.70;97.30;;;;;;5095063;28;20036;-69
2023/07/10 00:23:08;;;;;;;1999.90;999.90;;;20.70;97.50;;;;;;5094403;28;20033;-69
2023/07/10 00:25:35;;;;;;;1999.90;999.90;;;20.70;97.70;;;;;;5095173;28;20036;-69
2023/07/10 00:28:01;;;;;;;1999.90;999.90;;;20.70;98.10;;;;;;5095075;28;20080;-69
2023/07/10 00:30:26;;;;;;;1999.90;999.90;;;20.80;98.10;;;;;;5094915;28;20076;-70
2023/07/10 00:32:54;;;;;;;1999.90;999.90;;;20.80;98.10;;;;;;5094727;28;20052;-69
2023/07/10 00:35:25;;;;;;;1999.90;999.90;;;20.80;98.10;;;;;;5094647;28;20518;-69
2023/07/10 00:38:02;;;;;;;1999.90;999.90;;;20.80;98.20;;;;;;5094881;28;20087;-69
2023/07/10 00:40:33;;;;;;;1999.90;999.90;;;20.90;98.10;;;;;;5094890;28;20043;-69
2023/07/10 00:43:09;;;;;;;1999.90;999.90;;;20.90;97.80;;;;;;5093968;28;20047;-69
2023/07/10 00:45:34;;;;;;;1999.90;999.90;;;21.50;95.20;;;;;;5093377;28;20111;-69
2023/07/10 00:48:32;;;;;;;1999.90;999.90;;;21.80;94.60;;;;;;5094661;28;20052;-69
2023/07/10 00:51:03;;;;;;;1999.90;999.90;;;21.90;94.80;;;;;;5094298;28;20432;-70
2023/07/10 00:53:36;;;;;;;1999.90;999.90;;;21.80;94.40;;;;;;5094524;28;20047;-69
2023/07/10 00:56:03;;;;;;;1999.90;999.90;;;21.80;94.60;;;;;;5094502;28;20028;-69
2023/07/10 00:58:38;;;;;;;1999.90;999.90;;;21.80;94.70;;;;;;5094470;28;20028;-69
2023/07/10 01:01:18;;;;;;;1999.90;999.90;;;21.80;95.10;;;;;;5094640;28;20040;-69
2023/07/10 01:03:45;;;;;;;1999.90;999.90;;;21.80;94.80;;;;;;5094437;28;20387;-70
2023/07/10 01:06:29;;;;;;;1999.90;999.90;;;21.80;94.90;;;;;;5095642;28;20040;-69
2023/07/10 01:09:02;;;;;;;1999.90;999.90;;;21.70;95.20;;;;;;5098111;28;20036;-69
2023/07/10 01:11:28;;;;;;;1999.90;999.90;;;21.60;95.70;;;;;;5097689;28;20086;-69
2023/07/10 01:13:56;;;;;;;1999.90;999.90;;;21.40;95.90;;;;;;5098062;28;20040;-69
2023/07/10 01:16:24;;;;;;;1999.90;999.90;;;21.30;96.10;;;;;;5097992;28;20032;-69
2023/07/10 01:18:50;;;;;;;1999.90;999.90;;;21.30;96.20;;;;;;5097979;28;20579;-70
2023/07/10 01:21:31;;;;;;;1999.90;999.90;;;21.20;96.10;;;;;;5097695;28;20031;-69
2023/07/10 01:23:59;;;;;;;1999.90;999.90;;;21.10;96.20;;;;;;5097785;28;20037;-69
2023/07/10 01:26:25;;;;;;;1999.90;999.90;;;21.00;96.40;;;;;;5097775;28;20124;-69
2023/07/10 01:28:53;;;;;;;1999.90;999.90;;;21.10;96.40;;;;;;5097785;28;20039;-69
2023/07/10 01:31:19;;;;;;;1999.90;999.90;;;21.00;96.60;;;;;;5097222;28;20025;-69
2023/07/10 01:34:01;;;;;;;1999.90;999.90;;;21.00;96.70;;;;;;5097423;28;20040;-69
2023/07/10 01:36:32;;;;;;;1999.90;999.90;;;21.10;96.80;;;;;;5097557;28;20028;-69
2023/07/10 01:39:35;;;;;;;1999.90;999.90;;;21.10;96.80;;;;;;5097783;28;20071;-69
2023/07/10 01:42:01;;;;;;;1999.90;999.90;;;21.30;96.80;;;;;;5096063;28;20071;-69
2023/07/10 01:44:34;;;;;;;1999.90;999.90;;;21.30;96.60;;;;;;5097028;28;21734;-69
2023/07/10 01:47:02;;;;;;;1999.90;999.90;;;21.30;96.70;;;;;;5097411;28;20037;-70
2023/07/10 01:49:40;;;;;;;1999.90;999.90;;;21.30;97.10;;;;;;5095975;28;20033;-69
2023/07/10 01:52:08;;;;;;;1999.90;999.90;;;21.30;97.40;;;;;;5097216;28;20878;-69
2023/07/10 01:54:34;;;;;;;1999.90;999.90;;;21.40;97.10;;;;;;5095767;28;20032;-70
2023/07/10 01:57:00;;;;;;;1999.90;999.90;;;21.50;97.00;;;;;;5097498;28;20020;-69
2023/07/10 01:59:25;;;;;;;1999.90;999.90;;;21.50;97.00;;;;;;5097531;28;20485;-69
2023/07/10 02:01:54;;;;;;;1999.90;999.90;;;21.40;96.90;;;;;;5097139;28;20040;-69
2023/07/10 02:04:19;;;;;;;1999.90;999.90;;;21.40;96.90;;;;;;5096355;28;20115;-69
2023/07/10 02:06:45;;;;;;;1999.90;999.90;;;21.30;97.20;;;;;;5097278;28;20028;-69
2023/07/10 02:09:10;;;;;;;1999.90;999.90;;;21.20;97.20;;;;;;5097320;28;20410;-69
2023/07/10 02:11:37;;;;;;;1999.90;999.90;;;21.20;97.40;;;;;;5096748;28;20032;-69
2023/07/10 02:14:04;;;;;;;1999.90;999.90;;;21.10;97.50;;;;;;5097187;28;20043;-69
2023/07/10 02:16:30;;;;;;;1999.90;999.90;;;21.00;97.80;;;;;;5096685;28;20637;-70
2023/07/10 02:18:56;;;;;;;1999.90;999.90;;;20.90;98.00;;;;;;5096920;28;20036;-70
2023/07/10 02:21:21;;;;;;;1999.90;999.90;;;20.90;98.50;;;;;;5096807;28;20029;-69
2023/07/10 02:23:47;;;;;;;1999.90;999.90;;;20.90;99.00;;;;;;5096807;28;20036;-69
2023/07/10 02:26:14;;;;;;;1999.90;999.90;;;20.80;99.00;;;;;;5096888;28;20029;-69
2023/07/10 02:28:39;;;;;;;1999.90;999.90;;;20.80;99.10;;;;;;5096815;28;20525;-70
2023/07/10 02:31:06;;;;;;;1999.90;999.90;;;20.90;98.70;;;;;;5096643;28;20037;-69
2023/07/10 02:33:32;;;;;;;1999.90;999.90;;;21.00;98.50;;;;;;5095538;28;20498;-69
2023/07/10 02:35:57;;;;;;;1999.90;999.90;;;20.90;98.40;;;;;;5096761;28;20094;-69
2023/07/10 02:38:23;;;;;;;1999.90;999.90;;;20.90;98.30;;;;;;5096556;28;20082;-69
2023/07/10 02:40:48;;;;;;;1999.90;999.90;;;21.00;98.50;;;;;;5096629;28;20068;-69
2023/07/10 02:43:13;;;;;;;1999.90;999.90;;;21.00;98.30;;;;;;5095557;28;20440;-69
2023/07/10 02:45:39;;;;;;;1999.90;999.90;;;20.90;98.50;;;;;;5096590;28;20047;-68
2023/07/10 02:48:05;;;;;;;1999.90;999.90;;;20.90;98.50;;;;;;5096563;28;20032;-69
2023/07/10 02:50:30;;;;;;;1999.90;999.90;;;20.90;98.80;;;;;;5096503;28;20042;-69
2023/07/10 02:52:56;;;;;;;1999.90;999.90;;;20.80;98.80;;;;;;5096187;28;20044;-70
2023/07/10 02:55:22;;;;;;;1999.90;999.90;;;20.90;98.90;;;;;;5096449;28;20044;-69
2023/07/10 02:57:47;;;;;;;1999.90;999.90;;;20.90;98.90;;;;;;5096595;28;20495;-69
2023/07/10 03:00:13;;;;;;;1999.90;999.90;;;20.90;99.00;;;;;;5096495;28;20043;-69
2023/07/10 03:02:41;;;;;;;1999.90;999.90;;;20.90;99.10;;;;;;5096536;28;20025;-70
2023/07/10 03:05:07;;;;;;;1999.90;999.90;;;21.10;99.00;;;;;;5095923;28;20044;-69
2023/07/10 03:07:33;;;;;;;1999.90;999.90;;;21.10;98.90;;;;;;5096287;28;20530;-69
2023/07/10 03:09:58;;;;;;;1999.90;999.90;;;21.20;98.70;;;;;;5096275;28;20115;-69
2023/07/10 03:12:24;;;;;;;1999.90;999.90;;;21.40;98.80;;;;;;5095523;28;20075;-69
2023/07/10 03:14:50;;;;;;;1999.90;999.90;;;21.50;98.60;;;;;;5096030;28;20039;-69
2023/07/10 03:17:17;;;;;;;1999.90;999.90;;;21.70;98.10;;;;;;5096112;28;20036;-69
2023/07/10 03:19:43;;;;;;;1999.90;999.90;;;21.90;97.80;;;;;;5095737;28;20044;-69
2023/07/10 03:22:08;;;;;;;1999.90;999.90;;;22.00;97.60;;;;;;5095461;28;20024;-69
2023/07/10 03:24:34;;;;;;;1999.90;999.90;;;22.10;97.30;;;;;;5095862;28;20588;-69
2023/07/10 03:27:00;;;;;;;1999.90;999.90;;;22.20;97.10;;;;;;5095974;28;20478;-69
2023/07/10 03:29:26;;;;;;;1999.90;999.90;;;22.20;97.30;;;;;;5094832;28;20040;-69
2023/07/10 03:31:51;;;;;;;1999.90;999.90;;;22.10;97.40;;;;;;5095381;28;20040;-69
2023/07/10 03:34:17;;;;;;;1999.90;999.90;;;22.10;97.20;;;;;;5095947;28;20119;-69
2023/07/10 03:36:43;;;;;;;1999.90;999.90;;;22.00;97.30;;;;;;5095570;28;20028;-69
2023/07/10 03:39:10;;;;;;;1999.90;999.90;;;21.90;97.60;;;;;;5095691;28;20090;-69
2023/07/10 03:41:36;;;;;;;1999.90;999.90;;;21.80;97.70;;;;;;5095342;28;20029;-69
2023/07/10 03:44:02;;;;;;;1999.90;999.90;;;21.70;97.80;;;;;;5094025;28;20040;-69
2023/07/10 03:46:27;;;;;;;1999.90;999.90;;;21.60;98.00;;;;;;5094053;28;20047;-70
2023/07/10 03:48:53;;;;;;;1999.90;999.90;;;21.60;98.40;;;;;;5095620;28;20070;-69
2023/07/10 03:51:19;;;;;;;1999.90;999.90;;;21.60;98.50;;;;;;5095266;28;20474;-69
2023/07/10 03:53:46;;;;;;;1999.90;999.90;;;21.50;98.60;;;;;;5093665;28;20045;-69
2023/07/10 03:56:12;;;;;;;1999.90;999.90;;;21.40;98.90;;;;;;5093893;28;20060;-69
2023/07/10 03:58:43;;;;;;;1999.90;999.90;;;21.30;98.70;;;;;;5095444;28;20064;-69
2023/07/10 04:01:10;;;;;;;1999.90;999.90;;;21.30;99.10;;;;;;5095055;28;20056;-68
2023/07/10 04:03:36;;;;;;;1999.90;999.90;;;21.20;99.00;;;;;;5095336;28;20046;-69
2023/07/10 04:06:03;;;;;;;1999.90;999.90;;;21.20;99.10;;;;;;5095213;28;20036;-69
2023/07/10 04:08:33;;;;;;;1999.90;999.90;;;21.20;99.60;;;;;;5095032;28;20033;-69
2023/07/10 04:11:00;;;;;;;1999.90;999.90;;;21.20;99.60;;;;;;5094965;28;20497;-68
2023/07/10 04:13:26;;;;;;;1999.90;999.90;;;21.20;99.70;;;;;;5095013;28;20041;-70
2023/07/10 04:16:05;;;;;;;1999.90;999.90;;;21.40;99.90;;;;;;5095157;28;20029;-70
2023/07/10 04:18:39;;;;;;;1999.90;999.90;;;21.50;99.70;;;;;;5095051;28;20032;-69
2023/07/10 04:21:13;;;;;;;1999.90;999.90;;;21.60;99.70;;;;;;5094794;28;20038;-69
2023/07/10 04:23:38;;;;;;;1999.90;999.90;;;21.70;99.50;;;;;;5095059;28;20032;-69
2023/07/10 04:26:05;;;;;;;1999.90;999.90;;;21.90;99.40;;;;;;5095228;28;20104;-69
2023/07/10 04:28:30;;;;;;;1999.90;999.90;;;21.90;99.20;;;;;;5094978;28;20507;-69
2023/07/10 04:30:56;;;;;;;1999.90;999.90;;;22.00;99.30;;;;;;5094947;28;20029;-69
2023/07/10 04:33:21;;;;;;;1999.90;999.90;;;22.10;99.20;;;;;;5094620;28;20043;-69
2023/07/10 04:35:55;;;;;;;1999.90;999.90;;;22.40;98.60;;;;;;5095012;28;20040;-70
2023/07/10 04:38:27;;;;;;;1999.90;999.90;;;22.60;98.50;;;;;;5093405;28;20115;-69
2023/07/10 04:40:57;;;;;;;1999.90;999.90;;;22.70;98.00;;;;;;5094451;28;20111;-69
2023/07/10 04:43:25;;;;;;;1999.90;999.90;;;22.90;97.80;;;;;;5094450;28;20534;-69
2023/07/10 04:45:53;;;;;;;1999.90;999.90;;;23.00;97.60;;;;;;5094620;28;20460;-69
2023/07/10 04:48:19;;;;;;;1999.90;999.90;;;23.10;97.60;;;;;;5094878;28;20029;-69
2023/07/10 04:50:50;;;;;;;1999.90;999.90;;;23.10;97.40;;;;;;5094871;28;20436;-69
2023/07/10 04:53:16;;;;;;;1999.90;999.90;;;23.20;97.50;;;;;;5094372;28;20021;-69
2023/07/10 04:55:43;;;;;;;1999.90;999.90;;;23.30;97.40;;;;;;5094769;28;20039;-69
2023/07/10 04:58:09;;;;;;;1999.90;999.90;;;23.40;97.40;;;;;;5091951;28;20033;-71
2023/07/10 05:00:35;;;;;;;1999.90;999.90;;;23.50;97.30;;;;;;5093103;28;20043;-69
2023/07/10 05:03:01;;;;;;;1999.90;999.90;;;23.60;97.10;;;;;;5092911;28;20036;-69
2023/07/10 05:05:27;;;;;;;1999.90;999.90;;;23.80;96.60;;;;;;5093297;28;20032;-69
2023/07/10 05:07:53;;;;;;;1999.90;999.90;;;24.00;96.50;;;;;;5093023;28;20032;-69
2023/07/10 05:10:18;;;;;;;1999.90;999.90;;;24.20;96.20;;;;;;5094242;28;20032;-70
2023/07/10 05:12:44;;;;;;;1999.90;999.90;;;24.50;95.60;;;;;;5094227;28;20032;-69
2023/07/10 05:15:09;;;;;;;1999.90;999.90;;;24.60;95.50;;;;;;5094190;28;20047;-70
2023/07/10 05:17:35;;;;;;;1999.90;999.90;;;24.70;95.00;;;;;;5094273;28;20036;-70
2023/07/10 05:20:01;;;;;;;1999.90;999.90;;;24.90;95.30;;;;;;5094339;28;20498;-70
2023/07/10 05:22:26;;;;;;;1999.90;999.90;;;24.90;94.70;;;;;;5093673;28;20043;-70
2023/07/10 05:24:52;;;;;;;1999.90;999.90;;;25.00;94.50;;;;;;5094305;28;20064;-70
2023/07/10 05:27:17;;;;;;;1999.90;999.90;;;24.70;94.50;;;;;;5094200;28;20553;-69
2023/07/10 05:29:43;;;;;;;1999.90;999.90;;;24.60;94.90;;;;;;5093563;28;20443;-69
2023/07/10 05:32:09;;;;;;;1999.90;999.90;;;24.50;95.00;;;;;;5093657;28;20033;-69
2023/07/10 05:34:34;;;;;;;1999.90;999.90;;;24.40;95.20;;;;;;5094172;28;20040;-70
2023/07/10 05:37:00;;;;;;;1999.90;999.90;;;24.30;95.50;;;;;;5094059;28;20402;-71
2023/07/10 05:39:27;;;;;;;1999.90;999.90;;;24.30;95.80;;;;;;5094132;28;20032;-71
2023/07/10 05:41:53;;;;;;;1999.90;999.90;;;24.20;96.00;;;;;;5093721;28;20028;-69
2023/07/10 05:44:18;;;;;;;1999.90;999.90;;;24.20;96.20;;;;;;5093503;28;20045;-70
2023/07/10 05:46:44;;;;;;;1999.90;999.90;;;24.30;95.90;;;;;;5094093;28;20033;-72
2023/07/10 05:49:09;;;;;;;1999.90;999.90;;;24.50;95.60;;;;;;5093705;28;20036;-75
2023/07/10 05:51:35;;;;;;;1999.90;999.90;;;24.60;96.10;;;;;;5094270;28;20039;-73
2023/07/10 05:54:01;;;;;;;1999.90;999.90;;;24.70;95.50;;;;;;5097479;28;20040;-73
2023/07/10 05:56:26;;;;;;;1999.90;999.90;;;24.80;95.20;;;;;;5097235;28;20047;-75
2023/07/10 05:58:52;;;;;;;1999.90;999.90;;;24.90;95.00;;;;;;5097354;28;20035;-71
2023/07/10 06:01:18;;;;;;;1999.90;999.90;;;24.80;94.70;;;;;;5097364;28;20090;-73
2023/07/10 06:03:44;;;;;;;1999.90;999.90;;;25.10;94.70;;;;;;5097164;28;20382;-72
2023/07/10 06:06:26;;;;;;;1999.90;999.90;;;25.20;94.20;;;;;;5097005;28;20028;-71
2023/07/10 06:08:52;;;;;;;1999.90;999.90;;;25.30;94.10;;;;;;5095620;28;20032;-73
2023/07/10 06:11:17;;;;;;;1999.90;999.90;;;25.30;94.20;;;;;;5096382;28;20033;-71
2023/07/10 06:13:43;;;;;;;1999.90;999.90;;;25.40;94.00;;;;;;5096561;28;20410;-72
2023/07/10 06:16:10;;;;;;;1999.90;999.90;;;25.50;93.90;;;;;;5097109;28;20051;-70
2023/07/10 06:18:37;;;;;;;1999.90;999.90;;;25.60;94.00;;;;;;5096817;28;20029;-73
2023/07/10 06:21:04;;;;;;;1999.90;999.90;;;25.50;93.90;;;;;;5096642;28;20032;-72
2023/07/10 06:23:29;;;;;;;1999.90;999.90;;;25.50;94.10;;;;;;5096623;28;20051;-72
2023/07/10 06:25:56;;;;;;;1999.90;999.90;;;25.60;94.10;;;;;;5096658;28;20041;-72
2023/07/10 06:28:22;;;;;;;1999.90;999.90;;;25.60;94.10;;;;;;5096961;28;20456;-72
2023/07/10 06:31:00;;;;;;;1999.90;999.90;;;25.70;94.30;;;;;;5096813;28;20040;-72
2023/07/10 06:33:27;;;;;;;1999.90;999.90;;;25.80;94.10;;;;;;5096885;28;20028;-72
2023/07/10 06:35:53;;;;;;;1999.90;999.90;;;25.90;93.90;;;;;;5096836;28;20044;-73
2023/07/10 06:38:19;;;;;;;1999.90;999.90;;;26.10;93.90;;;;;;5096801;28;20035;-73
2023/07/10 06:40:47;;;;;;;1999.90;999.90;;;26.20;93.50;;;;;;5096749;28;20482;-72
2023/07/10 06:43:13;;;;;;;1999.90;999.90;;;26.30;93.50;;;;;;5096151;28;20029;-72
2023/07/10 06:45:39;;;;;;;1999.90;999.90;;;26.30;93.50;;;;;;5095216;28;20040;-72
2023/07/10 06:48:06;;;;;;;1999.90;999.90;;;26.50;93.40;;;;;;5096611;28;20040;-72
2023/07/10 06:50:31;;;;;;;1999.90;999.90;;;26.80;93.10;;;;;;5096494;28;20108;-73
2023/07/10 06:52:57;;;;;;;1999.90;999.90;;;26.80;93.00;;;;;;5095742;28;20095;-72
2023/07/10 06:55:23;;;;;;;1999.90;999.90;;;26.90;93.30;;;;;;5096398;28;20124;-72
2023/07/10 06:57:48;;;;;;;1999.90;999.90;;;27.00;92.30;;;;;;5096230;28;20039;-72
2023/07/10 07:00:17;;;;;;;1999.90;999.90;;;26.90;92.40;;;;;;5096306;28;20478;-72
2023/07/10 07:02:42;;;;;;;1999.90;999.90;;;26.70;92.50;;;;;;5095639;28;20118;-72
2023/07/10 07:05:10;;;;;;;1999.90;999.90;;;26.70;93.10;;;;;;5096190;28;20033;-72
2023/07/10 07:07:37;;;;;;;1999.90;999.90;;;26.80;92.90;;;;;;5095931;28;20063;-72
2023/07/10 07:10:07;;;;;;;1999.90;999.90;;;26.60;93.00;;;;;;5096214;28;20556;-72
2023/07/10 07:12:32;;;;;;;1999.90;999.90;;;26.50;93.20;;;;;;5095548;28;20024;-72
2023/07/10 07:14:58;;;;;;;1999.90;999.90;;;26.60;93.30;;;;;;5094562;28;20041;-72
2023/07/10 07:17:24;;;;;;;1999.90;999.90;;;26.70;93.50;;;;;;5096184;28;20039;-72
2023/07/10 07:19:49;;;;;;;1999.90;999.90;;;26.70;93.20;;;;;;5095843;28;20060;-72
2023/07/10 07:22:16;;;;;;;1999.90;999.90;;;26.60;93.40;;;;;;5095387;28;20054;-72
2023/07/10 07:24:41;;;;;;;1999.90;999.90;;;26.40;93.50;;;;;;5095737;28;20063;-72
2023/07/10 07:27:07;;;;;;;1999.90;999.90;;;26.20;93.80;;;;;;5095781;28;20067;-73
2023/07/10 07:29:33;;;;;;;1999.90;999.90;;;26.40;94.10;;;;;;5096087;28;20035;-72
2023/07/10 07:31:59;;;;;;;1999.90;999.90;;;26.30;94.00;;;;;;5095471;28;20029;-72
2023/07/10 07:34:24;;;;;;;1999.90;999.90;;;26.50;93.90;;;;;;5095840;28;20498;-71
2023/07/10 07:36:51;;;;;;;1999.90;999.90;;;26.70;93.30;;;;;;5095627;28;20502;-73
2023/07/10 07:39:17;;;;;;;1999.90;999.90;;;26.80;93.30;;;;;;5095826;28;20157;-72
2023/07/10 07:41:43;;;;;;;1999.90;999.90;;;26.80;92.90;;;;;;5094067;28;20032;-71
2023/07/10 07:44:08;;;;;;;1999.90;999.90;;;26.90;93.00;;;;;;5095153;28;20040;-71
2023/07/10 07:46:34;;;;;;;1999.90;999.90;;;27.30;92.10;;;;;;5095845;28;20478;-72
2023/07/10 07:48:59;;;;;;;1999.90;999.90;;;27.50;91.70;;;;;;5095559;28;20036;-75
2023/07/10 07:51:25;;;;;;;1999.90;999.90;;;27.60;91.60;;;;;;5095151;28;20029;-72
2023/07/10 07:54:12;;;;;;;1999.90;999.90;;;27.60;91.60;;;;;;5095373;28;20581;-72
2023/07/10 07:56:38;;;;;;;1999.90;999.90;;;27.70;91.80;;;;;;5095471;28;20049;-73
2023/07/10 07:59:03;;;;;;;1999.90;999.90;;;28.00;91.20;;;;;;5095571;28;20589;-70
2023/07/10 08:01:29;;;;;;;1999.90;999.90;;;28.10;91.00;;;;;;5094747;28;20028;-70
2023/07/10 08:03:55;;;;;;;1999.90;999.90;;;28.00;90.70;;;;;;5095295;28;20039;-71
2023/07/10 08:06:20;;;;;;;1999.90;999.90;;;28.20;91.20;;;;;;5095353;28;20155;-71
2023/07/10 08:08:46;;;;;;;1999.90;999.90;;;28.50;90.70;;;;;;5095324;28;20107;-71
2023/07/10 08:11:12;;;;;;;1999.90;999.90;;;28.90;89.50;;;;;;5095179;28;20475;-70
2023/07/10 08:13:38;;;;;;;1999.90;999.90;;;29.00;89.90;;;;;;5094848;28;20071;-70
2023/07/10 08:16:04;;;;;;;1999.90;999.90;;;29.10;89.60;;;;;;5093538;28;20054;-73
2023/07/10 08:18:29;;;;;;;1999.90;999.90;;;29.00;89.70;;;;;;5094973;28;20113;-73
2023/07/10 08:21:06;;;;;;;1999.90;999.90;;;29.10;88.90;;;;;;5095323;28;20494;-74
2023/07/10 08:23:31;;;;;;;1999.90;999.90;;;29.60;89.20;;;;;;5093387;28;20175;-73
2023/07/10 08:25:57;;;;;;;1999.90;999.90;;;29.90;86.70;;;;;;5094844;28;20592;-71
2023/07/10 08:28:23;;;;;;;1999.90;999.90;;;29.50;88.10;;;;;;5093622;28;20055;-74
2023/07/10 08:30:48;;;;;;;1999.90;999.90;;;29.20;88.40;;;;;;5094707;28;20136;-76
2023/07/10 08:33:14;;;;;;;1999.90;999.90;;;29.20;88.10;;;;;;5103005;22;20537;-76
2023/07/10 08:35:39;;;;;;;1999.90;999.90;;;29.40;87.50;;;;;;5073239;28;20033;-76
2023/07/10 08:38:06;;;;;;;1999.90;999.90;;;29.00;88.50;;;;;;5074785;28;20039;-77
2023/07/10 08:40:35;;;;;;;1999.90;999.90;;;29.00;88.60;;;;;;5074704;28;20029;-77
2023/07/10 08:43:37;;;;;;;1999.90;999.90;;;29.40;88.10;;;;;;5074129;28;20116;-77
2023/07/10 08:46:24;;;;;;;1999.90;999.90;;;29.70;88.50;;;;;;5090093;28;20045;-76
2023/07/10 08:48:59;;;;;;;1999.90;999.90;;;29.90;87.30;;;;;;5066178;28;20029;-76
2023/07/10 08:51:32;;;;;;;1999.90;999.90;;;30.20;87.10;;;;;;5094024;28;20090;-77
2023/07/10 08:54:05;;;;;;;1999.90;999.90;;;30.60;86.20;;;;;;5092889;28;20033;-77
2023/07/10 08:56:55;;;;;;;1999.90;999.90;;;30.60;84.50;;;;;;5085347;28;20047;-77
2023/07/10 08:59:38;;;;;;;1999.90;999.90;;;30.90;84.60;;;;;;5094781;28;20106;-77
2023/07/10 09:02:17;;;;;;;1999.90;999.90;;;31.20;83.40;;;;;;5094322;28;20040;-77
2023/07/10 09:04:45;;;;;;;1999.90;999.90;;;30.90;82.50;;;;;;5094593;28;20116;-76
2023/07/10 09:07:12;;;;;;;1999.90;999.90;;;30.60;83.10;;;;;;5094656;28;20031;-76
2023/07/10 09:09:55;;;;;;;1999.90;999.90;;;30.80;83.50;;;;;;5094706;28;20037;-76
2023/07/10 09:12:39;;;;;;;1999.90;999.90;;;31.00;82.60;;;;;;5094171;28;20033;-76
2023/07/10 09:15:10;;;;;;;1999.90;999.90;;;31.00;82.40;;;;;;5093074;28;20095;-77
2023/07/10 09:17:47;;;;;;;1999.90;999.90;;;31.20;81.50;;;;;;5093084;28;20024;-76
2023/07/10 09:20:14;;;;;;;1999.90;999.90;;;31.20;82.20;;;;;;5094412;28;20032;-76
2023/07/10 09:22:48;;;;;;;1999.90;999.90;;;30.90;81.50;;;;;;5094229;28;20112;-76
2023/07/10 09:25:14;;;;;;;1999.90;999.90;;;30.80;81.90;;;;;;5094606;28;20513;-76
2023/07/10 09:27:47;;;;;;;1999.90;999.90;;;31.00;81.90;;;;;;5097124;28;20375;-75
2023/07/10 09:30:27;;;;;;;1999.90;999.90;;;31.10;80.80;;;;;;5097233;28;20038;-76
2023/07/10 09:33:08;;;;;;;1999.90;999.90;;;31.20;80.40;;;;;;5096207;28;20032;-76
2023/07/10 09:35:36;;;;;;;1999.90;999.90;;;30.70;79.70;;;;;;5078928;28;20052;-76
2023/07/10 09:38:02;;;;;;;1999.90;999.90;;;30.90;80.00;;;;;;5084103;28;20029;-75
2023/07/10 09:40:41;;;;;;;1999.90;999.90;;;31.10;80.80;;;;;;5076568;28;20108;-76
2023/07/10 09:43:23;;;;;;;1999.90;999.90;;;31.20;81.40;;;;;;5079982;28;20041;-76
2023/07/10 09:45:58;;;;;;;1999.90;999.90;;;31.30;81.20;;;;;;5063380;28;20033;-77
2023/07/10 09:48:34;;;;;;;1999.90;999.90;;;31.80;81.00;;;;;;5057218;28;20846;-75
2023/07/10 09:51:09;;;;;;;1999.90;999.90;;;32.10;77.80;;;;;;5075286;28;20036;-75
2023/07/10 09:53:45;;;;;;;1999.90;999.90;;;32.20;78.10;;;;;;5065142;28;20179;-75
2023/07/10 09:56:26;;;;;;;1999.90;999.90;;;31.90;78.20;;;;;;5075827;28;20045;-75
2023/07/10 09:58:56;;;;;;;1999.90;999.90;;;31.70;78.00;;;;;;5077380;28;20518;-76
2023/07/10 10:01:30;;;;;;;1999.90;999.90;;;31.60;79.20;;;;;;5076368;28;20073;-75
2023/07/10 10:03:56;;;;;;;1999.90;999.90;;;31.40;78.90;;;;;;5076313;28;20472;-77
2023/07/10 10:06:28;;;;;;;1999.90;999.90;;;31.00;79.70;;;;;;5077531;28;20033;-79
2023/07/10 10:08:53;;;;;;;1999.90;999.90;;;30.90;80.00;;;;;;5078334;28;20485;-79
2023/07/10 10:11:40;;;;;;;1999.90;999.90;;;31.30;80.40;;;;;;5077311;28;20048;-79
2023/07/10 10:14:17;;;;;;;1999.90;999.90;;;31.50;79.60;;;;;;5075754;28;20037;-78
2023/07/10 10:16:50;;;;;;;1999.90;999.90;;;31.80;77.90;;;;;;5078445;28;20037;-79
2023/07/10 10:19:24;;;;;;;1999.90;999.90;;;31.30;80.30;;;;;;5077689;28;20033;-78
2023/07/10 10:21:50;;;;;;;1999.90;999.90;;;31.00;81.00;;;;;;5075728;28;20039;-78
2023/07/10 10:24:16;;;;;;;1999.90;999.90;;;31.30;79.40;;;;;;5077294;28;20108;-76
2023/07/10 10:26:46;;;;;;;1999.90;999.90;;;31.70;78.10;;;;;;5075897;28;20488;-77
2023/07/10 10:29:42;;;;;;;1999.90;999.90;;;31.90;77.90;;;;;;5075443;28;20044;-77
2023/07/10 10:32:08;;;;;;;1999.90;999.90;;;32.10;78.90;;;;;;5074750;28;20033;-75
2023/07/10 10:34:50;;;;;;;1999.90;999.90;;;32.10;78.60;;;;;;5076613;28;20041;-76
2023/07/10 10:37:42;;;;;;;1999.90;999.90;;;32.40;77.30;;;;;;5076547;28;20072;-75
2023/07/10 10:40:27;;;;;;;1999.90;999.90;;;32.70;76.20;;;;;;5076971;28;20083;-76
2023/07/10 10:43:15;;;;;;;1999.90;999.90;;;32.50;73.20;;;;;;5076324;28;20132;-75
2023/07/10 10:45:52;;;;;;;1999.90;999.90;;;32.20;74.80;;;;;;5081820;28;20491;-76
2023/07/10 10:48:32;;;;;;;1999.90;999.90;;;31.70;75.30;;;;;;5071485;28;20517;-75
2023/07/10 10:51:14;;;;;;;1999.90;999.90;;;32.00;75.60;;;;;;5074539;28;20041;-76
2023/07/10 10:53:57;;;;;;;1999.90;999.90;;;32.40;73.30;;;;;;5076497;28;20494;-75
2023/07/10 10:56:29;;;;;;;1999.90;999.90;;;32.80;73.60;;;;;;5076503;28;20489;-75
2023/07/10 10:59:35;;;;;;;1999.90;999.90;;;33.10;71.50;;;;;;5076318;28;20033;-76
2023/07/10 11:02:34;;;;;;;1999.90;999.90;;;33.30;69.30;;;;;;5073732;28;20040;-74
2023/07/10 11:05:10;;;;;;;1999.90;999.90;;;33.50;69.70;;;;;;5075424;28;20064;-74
2023/07/10 11:07:38;;;;;;;1999.90;999.90;;;33.30;70.10;;;;;;5075960;28;20036;-75
2023/07/10 11:10:14;;;;;;;1999.90;999.90;;;33.30;71.30;;;;;;5074211;28;20037;-75
2023/07/10 11:12:41;;;;;;;1999.90;999.90;;;33.60;72.50;;;;;;5073828;28;20079;-75
2023/07/10 11:15:17;;;;;;;1999.90;999.90;;;33.50;71.60;;;;;;5071948;28;20045;-75
2023/07/10 11:17:46;;;;;;;1999.90;999.90;;;33.50;72.40;;;;;;5075845;28;20033;-75
2023/07/10 11:20:14;;;;;;;1999.90;999.90;;;33.80;69.90;;;;;;5074321;28;20088;-75
2023/07/10 11:22:52;;;;;;;1999.90;999.90;;;33.90;69.80;;;;;;5075085;28;20112;-75
2023/07/10 11:25:28;;;;;;;1999.90;999.90;;;33.90;69.50;;;;;;5075397;28;20075;-74
2023/07/10 11:27:54;;;;;;;1999.90;999.90;;;33.90;68.90;;;;;;5074950;28;20083;-76
2023/07/10 11:30:30;;;;;;;1999.90;999.90;;;33.90;66.50;;;;;;5075310;28;20754;-75
2023/07/10 11:33:14;;;;;;;1999.90;999.90;;;33.90;66.30;;;;;;5074301;28;20182;-74
2023/07/10 11:36:20;;;;;;;1999.90;999.90;;;34.10;64.40;;;;;;5075043;28;20037;-75
2023/07/10 11:39:09;;;;;;;1999.90;999.90;;;33.50;67.50;;;;;;5077375;28;20517;-75
2023/07/10 11:41:44;;;;;;;1999.90;999.90;;;33.00;69.20;;;;;;5075163;28;20077;-76
2023/07/10 11:44:31;;;;;;;1999.90;999.90;;;32.80;69.40;;;;;;5075069;28;20086;-75
2023/07/10 11:47:01;;;;;;;1999.90;999.90;;;33.00;69.20;;;;;;5073774;28;20033;-74
2023/07/10 11:49:45;;;;;;;1999.90;999.90;;;33.50;67.00;;;;;;5074341;28;20032;-75
2023/07/10 11:52:14;;;;;;;1999.90;999.90;;;33.90;65.30;;;;;;5074952;28;20072;-75
2023/07/10 11:54:48;;;;;;;1999.90;999.90;;;33.90;64.60;;;;;;5073490;28;20072;-74
2023/07/10 11:57:34;;;;;;;1999.90;999.90;;;33.60;64.30;;;;;;5074818;28;20124;-75
2023/07/10 12:00:12;;;;;;;1999.90;999.90;;;33.30;66.00;;;;;;5075009;28;20131;-75
2023/07/10 12:02:43;;;;;;;1999.90;999.90;;;33.50;65.70;;;;;;5074366;28;20037;-74
2023/07/10 12:05:15;;;;;;;1999.90;999.90;;;33.50;67.10;;;;;;5074982;28;20063;-75
2023/07/10 12:07:54;;;;;;;1999.90;999.90;;;33.10;67.30;;;;;;5073378;28;20025;-76
2023/07/10 12:10:20;;;;;;;1999.90;999.90;;;33.20;65.40;;;;;;5074726;28;20491;-76
2023/07/10 12:12:46;;;;;;;1999.90;999.90;;;33.50;62.40;;;;;;5074565;28;20045;-75